sensor_id;sensor_type;location;lat;lon;timestamp;temperature;humidity
54264;DHT22;40178;53.042;6.406;2022-08-19T00:00:36;14.80;99.70
54264;DHT22;40178;53.042;6.406;2022-08-19T00:03:03;14.80;98.50
54264;DHT22;40178;53.042;6.406;2022-08-19T00:05:29;14.80;98.00
54264;DHT22;40178;53.042;6.406;2022-08-19T00:07:54;14.70;97.40
54264;DHT22;40178;53.042;6.406;2022-08-19T00:10:20;14.60;96.50
54264;DHT22;40178;53.042;6.406;2022-08-19T00:12:47;14.60;95.30
54264;DHT22;40178;53.042;6.406;2022-08-19T00:15:15;14.50;95.20
54264;DHT22;40178;53.042;6.406;2022-08-19T00:17:43;14.50;96.20
54264;DHT22;40178;53.042;6.406;2022-08-19T00:20:11;14.50;96.50
54264;DHT22;40178;53.042;6.406;2022-08-19T00:22:38;14.40;98.80
54264;DHT22;40178;53.042;6.406;2022-08-19T00:25:05;14.40;99.90
54264;DHT22;40178;53.042;6.406;2022-08-19T00:27:31;14.40;99.90
54264;DHT22;40178;53.042;6.406;2022-08-19T00:29:57;14.40;99.90
54264;DHT22;40178;53.042;6.406;2022-08-19T00:32:24;14.40;99.90
54264;DHT22;40178;53.042;6.406;2022-08-19T00:34:51;14.40;99.90
54264;DHT22;40178;53.042;6.406;2022-08-19T00:37:19;14.40;99.90
54264;DHT22;40178;53.042;6.406;2022-08-19T00:39:44;14.40;99.90
54264;DHT22;40178;53.042;6.406;2022-08-19T00:42:10;14.30;99.90
54264;DHT22;40178;53.042;6.406;2022-08-19T00:44:36;14.30;99.90
54264;DHT22;40178;53.042;6.406;2022-08-19T00:47:01;14.30;99.90
54264;DHT22;40178;53.042;6.406;2022-08-19T00:49:29;14.30;99.90
54264;DHT22;40178;53.042;6.406;2022-08-19T00:52:23;14.20;99.90
54264;DHT22;40178;53.042;6.406;2022-08-19T00:54:51;14.30;98.60
54264;DHT22;40178;53.042;6.406;2022-08-19T00:57:22;14.20;97.20
54264;DHT22;40178;53.042;6.406;2022-08-19T00:59:52;14.10;98.50
54264;DHT22;40178;53.042;6.406;2022-08-19T01:02:18;14.10;99.90
54264;DHT22;40178;53.042;6.406;2022-08-19T01:04:44;14.00;99.90
54264;DHT22;40178;53.042;6.406;2022-08-19T01:07:10;14.00;99.90
54264;DHT22;40178;53.042;6.406;2022-08-19T01:09:35;13.90;99.90
54264;DHT22;40178;53.042;6.406;2022-08-19T01:12:02;13.90;99.10
54264;DHT22;40178;53.042;6.406;2022-08-19T01:14:29;13.90;99.30
54264;DHT22;40178;53.042;6.406;2022-08-19T01:16:55;13.80;99.90
54264;DHT22;40178;53.042;6.406;2022-08-19T01:19:35;13.70;99.90
54264;DHT22;40178;53.042;6.406;2022-08-19T01:24:35;13.70;99.90
54264;DHT22;40178;53.042;6.406;2022-08-19T01:27:04;13.70;99.90
54264;DHT22;40178;53.042;6.406;2022-08-19T01:29:30;13.70;99.90
54264;DHT22;40178;53.042;6.406;2022-08-19T01:31:55;13.50;99.90
54264;DHT22;40178;53.042;6.406;2022-08-19T01:34:21;13.50;99.90
54264;DHT22;40178;53.042;6.406;2022-08-19T01:36:47;13.50;99.90
54264;DHT22;40178;53.042;6.406;2022-08-19T01:39:18;13.50;99.90
54264;DHT22;40178;53.042;6.406;2022-08-19T01:41:45;13.40;99.90
54264;DHT22;40178;53.042;6.406;2022-08-19T01:44:11;13.40;99.90
54264;DHT22;40178;53.042;6.406;2022-08-19T01:46:37;13.40;99.90
54264;DHT22;40178;53.042;6.406;2022-08-19T01:49:04;13.40;99.90
54264;DHT22;40178;53.042;6.406;2022-08-19T01:51:30;13.30;99.90
54264;DHT22;40178;53.042;6.406;2022-08-19T01:53:57;13.30;99.90
54264;DHT22;40178;53.042;6.406;2022-08-19T01:56:24;13.30;99.90
54264;DHT22;40178;53.042;6.406;2022-08-19T01:58:58;13.20;99.90
54264;DHT22;40178;53.042;6.406;2022-08-19T02:01:25;13.20;99.90
54264;DHT22;40178;53.042;6.406;2022-08-19T02:03:51;13.10;99.90
54264;DHT22;40178;53.042;6.406;2022-08-19T02:06:19;13.00;99.90
54264;DHT22;40178;53.042;6.406;2022-08-19T02:08:45;13.00;99.90
54264;DHT22;40178;53.042;6.406;2022-08-19T02:11:26;13.10;99.90
54264;DHT22;40178;53.042;6.406;2022-08-19T02:13:53;13.00;99.90
54264;DHT22;40178;53.042;6.406;2022-08-19T02:16:19;13.10;99.90
54264;DHT22;40178;53.042;6.406;2022-08-19T02:18:46;13.10;99.90
54264;DHT22;40178;53.042;6.406;2022-08-19T02:21:15;13.20;99.90
54264;DHT22;40178;53.042;6.406;2022-08-19T02:23:41;13.10;99.90
54264;DHT22;40178;53.042;6.406;2022-08-19T02:26:07;13.20;99.90
54264;DHT22;40178;53.042;6.406;2022-08-19T02:28:33;13.20;99.90
54264;DHT22;40178;53.042;6.406;2022-08-19T02:30:59;13.20;99.90
54264;DHT22;40178;53.042;6.406;2022-08-19T02:33:26;13.20;99.90
54264;DHT22;40178;53.042;6.406;2022-08-19T02:35:52;13.20;99.90
54264;DHT22;40178;53.042;6.406;2022-08-19T02:38:17;13.20;99.90
54264;DHT22;40178;53.042;6.406;2022-08-19T02:40:55;13.30;99.90
54264;DHT22;40178;53.042;6.406;2022-08-19T02:43:23;13.30;99.90
54264;DHT22;40178;53.042;6.406;2022-08-19T02:45:49;13.30;99.90
54264;DHT22;40178;53.042;6.406;2022-08-19T02:48:17;13.30;99.90
54264;DHT22;40178;53.042;6.406;2022-08-19T02:50:44;13.40;99.90
54264;DHT22;40178;53.042;6.406;2022-08-19T02:53:10;13.30;99.90
54264;DHT22;40178;53.042;6.406;2022-08-19T02:55:43;13.30;99.90
54264;DHT22;40178;53.042;6.406;2022-08-19T02:58:09;13.40;99.90
54264;DHT22;40178;53.042;6.406;2022-08-19T03:00:34;13.40;99.90
54264;DHT22;40178;53.042;6.406;2022-08-19T03:03:00;13.40;99.90
54264;DHT22;40178;53.042;6.406;2022-08-19T03:05:26;13.30;99.90
54264;DHT22;40178;53.042;6.406;2022-08-19T03:07:52;13.40;99.90
54264;DHT22;40178;53.042;6.406;2022-08-19T03:10:18;13.40;99.90
54264;DHT22;40178;53.042;6.406;2022-08-19T03:12:44;13.40;99.90
54264;DHT22;40178;53.042;6.406;2022-08-19T03:15:11;13.40;99.90
54264;DHT22;40178;53.042;6.406;2022-08-19T03:17:37;13.30;99.90
54264;DHT22;40178;53.042;6.406;2022-08-19T03:20:04;13.30;99.90
54264;DHT22;40178;53.042;6.406;2022-08-19T03:22:29;13.30;99.90
54264;DHT22;40178;53.042;6.406;2022-08-19T03:24:56;13.20;99.90
54264;DHT22;40178;53.042;6.406;2022-08-19T03:27:21;13.20;99.90
54264;DHT22;40178;53.042;6.406;2022-08-19T03:29:47;13.20;99.90
54264;DHT22;40178;53.042;6.406;2022-08-19T03:32:13;13.10;99.90
54264;DHT22;40178;53.042;6.406;2022-08-19T03:34:39;13.20;99.90
54264;DHT22;40178;53.042;6.406;2022-08-19T03:37:07;13.20;99.90
54264;DHT22;40178;53.042;6.406;2022-08-19T03:39:33;13.20;99.90
54264;DHT22;40178;53.042;6.406;2022-08-19T03:42:00;13.10;99.90
54264;DHT22;40178;53.042;6.406;2022-08-19T03:44:28;13.10;99.90
54264;DHT22;40178;53.042;6.406;2022-08-19T03:46:56;13.00;99.90
54264;DHT22;40178;53.042;6.406;2022-08-19T03:49:24;13.00;99.90
54264;DHT22;40178;53.042;6.406;2022-08-19T03:51:52;13.00;99.90
54264;DHT22;40178;53.042;6.406;2022-08-19T03:54:20;13.00;99.90
54264;DHT22;40178;53.042;6.406;2022-08-19T03:56:49;13.10;99.90
54264;DHT22;40178;53.042;6.406;2022-08-19T03:59:24;13.10;99.90
54264;DHT22;40178;53.042;6.406;2022-08-19T04:01:56;13.10;99.90
54264;DHT22;40178;53.042;6.406;2022-08-19T04:04:23;13.10;99.90
54264;DHT22;40178;53.042;6.406;2022-08-19T04:06:50;12.90;99.90
54264;DHT22;40178;53.042;6.406;2022-08-19T04:09:17;13.00;99.90
54264;DHT22;40178;53.042;6.406;2022-08-19T04:11:47;12.90;99.90
54264;DHT22;40178;53.042;6.406;2022-08-19T04:14:18;12.90;99.90
54264;DHT22;40178;53.042;6.406;2022-08-19T04:16:44;12.90;99.90
54264;DHT22;40178;53.042;6.406;2022-08-19T04:19:10;12.90;99.90
54264;DHT22;40178;53.042;6.406;2022-08-19T04:21:36;12.90;99.90
54264;DHT22;40178;53.042;6.406;2022-08-19T04:24:03;12.90;99.90
54264;DHT22;40178;53.042;6.406;2022-08-19T04:26:32;12.90;99.90
54264;DHT22;40178;53.042;6.406;2022-08-19T04:29:22;12.90;99.90
54264;DHT22;40178;53.042;6.406;2022-08-19T04:32:22;12.90;99.90
54264;DHT22;40178;53.042;6.406;2022-08-19T04:35:08;12.80;99.90
54264;DHT22;40178;53.042;6.406;2022-08-19T04:37:45;12.80;99.90
54264;DHT22;40178;53.042;6.406;2022-08-19T04:40:29;12.80;99.90
54264;DHT22;40178;53.042;6.406;2022-08-19T04:43:31;12.80;99.90
54264;DHT22;40178;53.042;6.406;2022-08-19T04:49:05;13.00;99.90
54264;DHT22;40178;53.042;6.406;2022-08-19T04:51:59;12.90;99.90
54264;DHT22;40178;53.042;6.406;2022-08-19T04:54:33;12.80;99.90
54264;DHT22;40178;53.042;6.406;2022-08-19T04:57:18;12.90;99.90
54264;DHT22;40178;53.042;6.406;2022-08-19T05:00:17;12.90;99.90
54264;DHT22;40178;53.042;6.406;2022-08-19T05:03:01;12.90;99.90
54264;DHT22;40178;53.042;6.406;2022-08-19T05:06:11;13.00;99.90
54264;DHT22;40178;53.042;6.406;2022-08-19T05:08:38;13.00;99.90
54264;DHT22;40178;53.042;6.406;2022-08-19T05:13:41;13.10;99.90
54264;DHT22;40178;53.042;6.406;2022-08-19T05:16:09;13.20;99.90
54264;DHT22;40178;53.042;6.406;2022-08-19T05:18:35;13.10;99.90
54264;DHT22;40178;53.042;6.406;2022-08-19T05:21:20;13.20;99.90
54264;DHT22;40178;53.042;6.406;2022-08-19T05:24:05;13.30;99.90
54264;DHT22;40178;53.042;6.406;2022-08-19T05:26:39;13.30;99.90
54264;DHT22;40178;53.042;6.406;2022-08-19T05:29:05;13.30;99.90
54264;DHT22;40178;53.042;6.406;2022-08-19T05:31:32;13.40;99.90
54264;DHT22;40178;53.042;6.406;2022-08-19T05:33:58;13.50;99.90
54264;DHT22;40178;53.042;6.406;2022-08-19T05:36:32;13.60;99.90
54264;DHT22;40178;53.042;6.406;2022-08-19T05:38:59;13.60;99.90
54264;DHT22;40178;53.042;6.406;2022-08-19T05:41:25;13.70;99.90
54264;DHT22;40178;53.042;6.406;2022-08-19T05:43:55;13.90;99.90
54264;DHT22;40178;53.042;6.406;2022-08-19T05:46:22;13.90;99.90
54264;DHT22;40178;53.042;6.406;2022-08-19T05:48:48;14.20;99.90
54264;DHT22;40178;53.042;6.406;2022-08-19T05:51:14;14.30;99.90
54264;DHT22;40178;53.042;6.406;2022-08-19T05:53:41;14.40;99.90
54264;DHT22;40178;53.042;6.406;2022-08-19T05:56:10;14.50;99.90
54264;DHT22;40178;53.042;6.406;2022-08-19T05:58:36;14.60;99.90
54264;DHT22;40178;53.042;6.406;2022-08-19T06:01:04;14.90;99.90
54264;DHT22;40178;53.042;6.406;2022-08-19T06:03:34;14.90;99.90
54264;DHT22;40178;53.042;6.406;2022-08-19T06:06:00;15.20;99.90
54264;DHT22;40178;53.042;6.406;2022-08-19T06:08:28;15.20;99.90
54264;DHT22;40178;53.042;6.406;2022-08-19T06:10:53;15.50;99.90
54264;DHT22;40178;53.042;6.406;2022-08-19T06:13:19;15.50;99.90
54264;DHT22;40178;53.042;6.406;2022-08-19T06:15:46;15.70;99.90
54264;DHT22;40178;53.042;6.406;2022-08-19T06:18:13;15.90;99.90
54264;DHT22;40178;53.042;6.406;2022-08-19T06:20:39;16.00;99.90
54264;DHT22;40178;53.042;6.406;2022-08-19T06:23:05;16.10;99.90
54264;DHT22;40178;53.042;6.406;2022-08-19T06:25:30;16.30;99.90
54264;DHT22;40178;53.042;6.406;2022-08-19T06:27:56;16.30;99.90
54264;DHT22;40178;53.042;6.406;2022-08-19T06:30:22;16.50;99.90
54264;DHT22;40178;53.042;6.406;2022-08-19T06:32:47;16.70;99.90
54264;DHT22;40178;53.042;6.406;2022-08-19T06:35:13;16.90;99.90
54264;DHT22;40178;53.042;6.406;2022-08-19T06:37:40;17.00;99.90
54264;DHT22;40178;53.042;6.406;2022-08-19T06:40:07;17.10;99.90
54264;DHT22;40178;53.042;6.406;2022-08-19T06:42:34;17.20;99.90
54264;DHT22;40178;53.042;6.406;2022-08-19T06:45:00;17.40;99.90
54264;DHT22;40178;53.042;6.406;2022-08-19T06:47:28;17.50;99.90
54264;DHT22;40178;53.042;6.406;2022-08-19T06:49:58;17.70;99.90
54264;DHT22;40178;53.042;6.406;2022-08-19T06:52:33;17.80;99.90
54264;DHT22;40178;53.042;6.406;2022-08-19T06:55:00;18.00;99.90
54264;DHT22;40178;53.042;6.406;2022-08-19T06:57:26;18.10;99.90
54264;DHT22;40178;53.042;6.406;2022-08-19T06:59:52;18.20;99.90
54264;DHT22;40178;53.042;6.406;2022-08-19T07:02:19;18.40;99.90
54264;DHT22;40178;53.042;6.406;2022-08-19T07:04:45;18.50;99.90
54264;DHT22;40178;53.042;6.406;2022-08-19T07:07:14;18.60;99.90
54264;DHT22;40178;53.042;6.406;2022-08-19T07:09:42;18.80;99.90
54264;DHT22;40178;53.042;6.406;2022-08-19T07:12:10;18.90;99.90
54264;DHT22;40178;53.042;6.406;2022-08-19T07:14:36;19.10;99.90
54264;DHT22;40178;53.042;6.406;2022-08-19T07:17:05;19.10;99.90
54264;DHT22;40178;53.042;6.406;2022-08-19T07:19:33;19.20;99.90
54264;DHT22;40178;53.042;6.406;2022-08-19T07:22:01;19.30;99.90
54264;DHT22;40178;53.042;6.406;2022-08-19T07:24:28;19.60;99.90
54264;DHT22;40178;53.042;6.406;2022-08-19T07:26:56;19.50;99.90
54264;DHT22;40178;53.042;6.406;2022-08-19T07:29:27;19.60;99.90
54264;DHT22;40178;53.042;6.406;2022-08-19T07:31:54;19.70;99.90
54264;DHT22;40178;53.042;6.406;2022-08-19T07:34:25;19.90;99.90
54264;DHT22;40178;53.042;6.406;2022-08-19T07:36:51;19.80;99.90
54264;DHT22;40178;53.042;6.406;2022-08-19T07:39:21;19.90;99.90
54264;DHT22;40178;53.042;6.406;2022-08-19T07:41:47;19.90;99.90
54264;DHT22;40178;53.042;6.406;2022-08-19T07:44:14;20.10;99.90
54264;DHT22;40178;53.042;6.406;2022-08-19T07:46:45;20.20;99.90
54264;DHT22;40178;53.042;6.406;2022-08-19T07:49:12;20.30;99.90
54264;DHT22;40178;53.042;6.406;2022-08-19T07:51:45;20.40;99.90
54264;DHT22;40178;53.042;6.406;2022-08-19T07:54:11;20.50;99.90
54264;DHT22;40178;53.042;6.406;2022-08-19T07:56:37;20.50;99.90
54264;DHT22;40178;53.042;6.406;2022-08-19T07:59:02;20.80;99.90
54264;DHT22;40178;53.042;6.406;2022-08-19T08:01:28;20.90;98.90
54264;DHT22;40178;53.042;6.406;2022-08-19T08:03:55;20.90;99.00
54264;DHT22;40178;53.042;6.406;2022-08-19T08:06:40;21.10;99.50
54264;DHT22;40178;53.042;6.406;2022-08-19T08:09:37;21.30;98.00
54264;DHT22;40178;53.042;6.406;2022-08-19T08:12:07;21.40;95.00
54264;DHT22;40178;53.042;6.406;2022-08-19T08:14:37;21.50;95.60
54264;DHT22;40178;53.042;6.406;2022-08-19T08:17:05;21.60;96.20
54264;DHT22;40178;53.042;6.406;2022-08-19T08:19:31;21.60;92.80
54264;DHT22;40178;53.042;6.406;2022-08-19T08:21:58;21.50;88.80
54264;DHT22;40178;53.042;6.406;2022-08-19T08:24:29;21.70;92.90
54264;DHT22;40178;53.042;6.406;2022-08-19T08:26:57;21.70;92.80
54264;DHT22;40178;53.042;6.406;2022-08-19T08:29:25;21.80;93.40
54264;DHT22;40178;53.042;6.406;2022-08-19T08:31:51;21.90;92.90
54264;DHT22;40178;53.042;6.406;2022-08-19T08:34:17;22.00;91.80
54264;DHT22;40178;53.042;6.406;2022-08-19T08:36:45;22.00;92.00
54264;DHT22;40178;53.042;6.406;2022-08-19T08:39:16;22.10;89.80
54264;DHT22;40178;53.042;6.406;2022-08-19T08:42:07;22.20;77.80
54264;DHT22;40178;53.042;6.406;2022-08-19T08:47:04;22.40;65.20
54264;DHT22;40178;53.042;6.406;2022-08-19T08:49:44;22.40;77.80
54264;DHT22;40178;53.042;6.406;2022-08-19T08:52:18;22.50;62.30
54264;DHT22;40178;53.042;6.406;2022-08-19T08:54:47;22.50;60.00
54264;DHT22;40178;53.042;6.406;2022-08-19T08:57:50;22.40;61.90
54264;DHT22;40178;53.042;6.406;2022-08-19T09:00:32;22.70;26.80
54264;DHT22;40178;53.042;6.406;2022-08-19T09:02:59;22.70;56.60
54264;DHT22;40178;53.042;6.406;2022-08-19T09:05:41;23.00;36.20
54264;DHT22;40178;53.042;6.406;2022-08-19T09:08:21;23.10;44.00
54264;DHT22;40178;53.042;6.406;2022-08-19T09:10:53;23.20;31.00
54264;DHT22;40178;53.042;6.406;2022-08-19T09:16:02;23.50;38.30
54264;DHT22;40178;53.042;6.406;2022-08-19T09:21:09;23.60;29.50
54264;DHT22;40178;53.042;6.406;2022-08-19T09:23:36;23.90;36.70
54264;DHT22;40178;53.042;6.406;2022-08-19T09:26:08;23.80;1.00
54264;DHT22;40178;53.042;6.406;2022-08-19T09:28:34;23.90;17.00
54264;DHT22;40178;53.042;6.406;2022-08-19T09:31:00;24.00;27.10
54264;DHT22;40178;53.042;6.406;2022-08-19T09:33:25;24.00;1.00
54264;DHT22;40178;53.042;6.406;2022-08-19T09:36:06;24.10;1.00
54264;DHT22;40178;53.042;6.406;2022-08-19T09:38:33;24.10;1.00
54264;DHT22;40178;53.042;6.406;2022-08-19T09:41:06;24.20;1.00
54264;DHT22;40178;53.042;6.406;2022-08-19T09:43:33;24.30;1.00
54264;DHT22;40178;53.042;6.406;2022-08-19T09:46:03;24.30;1.00
54264;DHT22;40178;53.042;6.406;2022-08-19T09:48:30;24.40;1.00
54264;DHT22;40178;53.042;6.406;2022-08-19T09:51:06;24.50;1.00
54264;DHT22;40178;53.042;6.406;2022-08-19T09:53:34;24.50;1.00
54264;DHT22;40178;53.042;6.406;2022-08-19T09:56:00;24.70;1.00
54264;DHT22;40178;53.042;6.406;2022-08-19T09:58:26;24.70;1.00
54264;DHT22;40178;53.042;6.406;2022-08-19T10:00:57;24.80;1.00
54264;DHT22;40178;53.042;6.406;2022-08-19T10:03:24;24.70;1.00
54264;DHT22;40178;53.042;6.406;2022-08-19T10:05:50;24.80;1.00
54264;DHT22;40178;53.042;6.406;2022-08-19T10:08:18;24.90;1.00
54264;DHT22;40178;53.042;6.406;2022-08-19T10:10:45;24.80;1.00
54264;DHT22;40178;53.042;6.406;2022-08-19T10:13:12;24.60;1.00
54264;DHT22;40178;53.042;6.406;2022-08-19T10:15:37;24.80;1.00
54264;DHT22;40178;53.042;6.406;2022-08-19T10:18:06;24.90;1.00
54264;DHT22;40178;53.042;6.406;2022-08-19T10:20:32;25.10;1.00
54264;DHT22;40178;53.042;6.406;2022-08-19T10:22:57;25.20;1.00
54264;DHT22;40178;53.042;6.406;2022-08-19T10:25:25;25.20;1.00
54264;DHT22;40178;53.042;6.406;2022-08-19T10:27:52;25.50;1.00
54264;DHT22;40178;53.042;6.406;2022-08-19T10:30:18;25.40;1.00
54264;DHT22;40178;53.042;6.406;2022-08-19T10:32:44;25.50;1.00
54264;DHT22;40178;53.042;6.406;2022-08-19T10:35:12;25.50;1.00
54264;DHT22;40178;53.042;6.406;2022-08-19T10:37:38;25.40;1.00
54264;DHT22;40178;53.042;6.406;2022-08-19T10:40:08;25.30;1.00
54264;DHT22;40178;53.042;6.406;2022-08-19T10:42:36;25.10;1.00
54264;DHT22;40178;53.042;6.406;2022-08-19T10:45:03;25.10;1.00
54264;DHT22;40178;53.042;6.406;2022-08-19T10:47:28;25.10;1.00
54264;DHT22;40178;53.042;6.406;2022-08-19T10:49:55;25.30;1.00
54264;DHT22;40178;53.042;6.406;2022-08-19T10:52:41;25.50;1.00
54264;DHT22;40178;53.042;6.406;2022-08-19T10:55:08;25.30;1.00
54264;DHT22;40178;53.042;6.406;2022-08-19T10:57:52;25.10;1.00
54264;DHT22;40178;53.042;6.406;2022-08-19T11:00:19;24.80;1.00
54264;DHT22;40178;53.042;6.406;2022-08-19T11:02:45;24.80;1.00
54264;DHT22;40178;53.042;6.406;2022-08-19T11:05:11;24.80;1.00
54264;DHT22;40178;53.042;6.406;2022-08-19T11:07:41;25.00;1.00
54264;DHT22;40178;53.042;6.406;2022-08-19T11:10:08;25.10;1.00
54264;DHT22;40178;53.042;6.406;2022-08-19T11:12:37;25.60;1.00
54264;DHT22;40178;53.042;6.406;2022-08-19T11:15:08;26.10;1.00
54264;DHT22;40178;53.042;6.406;2022-08-19T11:17:39;26.30;1.00
54264;DHT22;40178;53.042;6.406;2022-08-19T11:20:10;26.50;1.00
54264;DHT22;40178;53.042;6.406;2022-08-19T11:22:36;26.70;1.00
54264;DHT22;40178;53.042;6.406;2022-08-19T11:25:02;26.90;99.90
54264;DHT22;40178;53.042;6.406;2022-08-19T11:27:28;27.00;99.90
54264;DHT22;40178;53.042;6.406;2022-08-19T11:29:54;27.00;1.00
54264;DHT22;40178;53.042;6.406;2022-08-19T11:32:20;26.80;99.90
54264;DHT22;40178;53.042;6.406;2022-08-19T11:34:45;26.70;1.00
54264;DHT22;40178;53.042;6.406;2022-08-19T11:37:11;26.70;99.90
54264;DHT22;40178;53.042;6.406;2022-08-19T11:39:36;26.90;1.00
54264;DHT22;40178;53.042;6.406;2022-08-19T11:42:04;27.10;99.90
54264;DHT22;40178;53.042;6.406;2022-08-19T11:44:51;27.30;99.90
54264;DHT22;40178;53.042;6.406;2022-08-19T11:47:17;27.80;1.00
54264;DHT22;40178;53.042;6.406;2022-08-19T11:49:42;28.00;1.00
54264;DHT22;40178;53.042;6.406;2022-08-19T11:52:08;27.80;95.40
54264;DHT22;40178;53.042;6.406;2022-08-19T11:54:34;27.70;99.90
54264;DHT22;40178;53.042;6.406;2022-08-19T11:57:03;27.40;99.90
54264;DHT22;40178;53.042;6.406;2022-08-19T11:59:31;27.30;99.90
54264;DHT22;40178;53.042;6.406;2022-08-19T12:01:57;27.10;58.30
54264;DHT22;40178;53.042;6.406;2022-08-19T12:04:23;26.90;99.90
54264;DHT22;40178;53.042;6.406;2022-08-19T12:06:49;26.90;99.90
54264;DHT22;40178;53.042;6.406;2022-08-19T12:09:15;27.10;99.90
54264;DHT22;40178;53.042;6.406;2022-08-19T12:11:41;27.00;31.00
54264;DHT22;40178;53.042;6.406;2022-08-19T12:14:10;27.00;99.90
54264;DHT22;40178;53.042;6.406;2022-08-19T12:16:37;27.10;90.50
54264;DHT22;40178;53.042;6.406;2022-08-19T12:19:04;27.10;1.00
54264;DHT22;40178;53.042;6.406;2022-08-19T12:21:33;27.20;1.00
54264;DHT22;40178;53.042;6.406;2022-08-19T12:23:59;27.30;1.00
54264;DHT22;40178;53.042;6.406;2022-08-19T12:26:26;27.30;1.00
54264;DHT22;40178;53.042;6.406;2022-08-19T12:28:52;27.40;1.00
54264;DHT22;40178;53.042;6.406;2022-08-19T12:31:18;27.50;1.00
54264;DHT22;40178;53.042;6.406;2022-08-19T12:33:45;27.70;99.90
54264;DHT22;40178;53.042;6.406;2022-08-19T12:36:13;27.70;99.90
54264;DHT22;40178;53.042;6.406;2022-08-19T12:38:40;27.80;99.90
54264;DHT22;40178;53.042;6.406;2022-08-19T12:41:12;27.60;99.90
54264;DHT22;40178;53.042;6.406;2022-08-19T12:43:37;27.50;1.00
54264;DHT22;40178;53.042;6.406;2022-08-19T12:46:04;27.20;1.00
54264;DHT22;40178;53.042;6.406;2022-08-19T12:48:31;27.10;1.00
54264;DHT22;40178;53.042;6.406;2022-08-19T12:50:57;27.00;1.00
54264;DHT22;40178;53.042;6.406;2022-08-19T12:53:23;26.60;1.00
54264;DHT22;40178;53.042;6.406;2022-08-19T12:55:55;26.60;81.90
54264;DHT22;40178;53.042;6.406;2022-08-19T12:58:21;26.40;99.90
54264;DHT22;40178;53.042;6.406;2022-08-19T13:00:47;26.40;99.90
54264;DHT22;40178;53.042;6.406;2022-08-19T13:03:14;26.30;1.00
54264;DHT22;40178;53.042;6.406;2022-08-19T13:05:39;26.00;91.90
54264;DHT22;40178;53.042;6.406;2022-08-19T13:08:05;25.80;99.90
54264;DHT22;40178;53.042;6.406;2022-08-19T13:10:33;25.40;99.90
54264;DHT22;40178;53.042;6.406;2022-08-19T13:13:04;25.30;11.70
54264;DHT22;40178;53.042;6.406;2022-08-19T13:15:34;25.30;1.00
54264;DHT22;40178;53.042;6.406;2022-08-19T13:18:00;25.10;99.90
54264;DHT22;40178;53.042;6.406;2022-08-19T13:20:26;24.80;99.90
54264;DHT22;40178;53.042;6.406;2022-08-19T13:22:53;24.60;1.00
54264;DHT22;40178;53.042;6.406;2022-08-19T13:25:19;24.60;1.00
54264;DHT22;40178;53.042;6.406;2022-08-19T13:27:49;24.40;99.90
54264;DHT22;40178;53.042;6.406;2022-08-19T13:30:17;24.30;99.90
54264;DHT22;40178;53.042;6.406;2022-08-19T13:33:02;24.00;1.00
54264;DHT22;40178;53.042;6.406;2022-08-19T13:38:09;23.40;1.00
54264;DHT22;40178;53.042;6.406;2022-08-19T13:40:36;23.20;1.00
54264;DHT22;40178;53.042;6.406;2022-08-19T13:43:03;23.10;1.00
54264;DHT22;40178;53.042;6.406;2022-08-19T13:45:31;23.00;1.00
54264;DHT22;40178;53.042;6.406;2022-08-19T13:48:03;23.00;1.00
54264;DHT22;40178;53.042;6.406;2022-08-19T13:50:32;23.20;1.00
54264;DHT22;40178;53.042;6.406;2022-08-19T13:52:58;23.10;1.00
54264;DHT22;40178;53.042;6.406;2022-08-19T13:55:24;23.10;1.00
54264;DHT22;40178;53.042;6.406;2022-08-19T13:57:55;23.20;10.70
54264;DHT22;40178;53.042;6.406;2022-08-19T14:00:22;23.20;1.00
54264;DHT22;40178;53.042;6.406;2022-08-19T14:02:50;23.40;5.20
54264;DHT22;40178;53.042;6.406;2022-08-19T14:05:18;23.30;1.00
54264;DHT22;40178;53.042;6.406;2022-08-19T14:07:43;23.30;1.00
54264;DHT22;40178;53.042;6.406;2022-08-19T14:10:10;23.40;1.00
54264;DHT22;40178;53.042;6.406;2022-08-19T14:12:37;23.30;1.00
54264;DHT22;40178;53.042;6.406;2022-08-19T14:15:04;23.40;1.00
54264;DHT22;40178;53.042;6.406;2022-08-19T14:17:30;23.30;1.00
54264;DHT22;40178;53.042;6.406;2022-08-19T14:19:59;23.30;1.00
54264;DHT22;40178;53.042;6.406;2022-08-19T14:22:29;23.30;1.00
54264;DHT22;40178;53.042;6.406;2022-08-19T14:24:57;23.20;5.80
54264;DHT22;40178;53.042;6.406;2022-08-19T14:27:22;23.00;8.50
54264;DHT22;40178;53.042;6.406;2022-08-19T14:29:51;22.90;35.10
54264;DHT22;40178;53.042;6.406;2022-08-19T14:32:16;22.80;57.80
54264;DHT22;40178;53.042;6.406;2022-08-19T14:34:42;22.80;44.50
54264;DHT22;40178;53.042;6.406;2022-08-19T14:37:14;22.80;49.10
54264;DHT22;40178;53.042;6.406;2022-08-19T14:39:43;22.80;78.40
54264;DHT22;40178;53.042;6.406;2022-08-19T14:42:14;22.90;68.40
54264;DHT22;40178;53.042;6.406;2022-08-19T14:44:41;23.30;77.60
54264;DHT22;40178;53.042;6.406;2022-08-19T14:47:07;23.60;72.50
54264;DHT22;40178;53.042;6.406;2022-08-19T14:49:34;24.10;73.70
54264;DHT22;40178;53.042;6.406;2022-08-19T14:51:59;24.70;69.70
54264;DHT22;40178;53.042;6.406;2022-08-19T14:54:25;25.10;36.50
54264;DHT22;40178;53.042;6.406;2022-08-19T14:56:51;25.30;7.10
54264;DHT22;40178;53.042;6.406;2022-08-19T14:59:17;25.20;1.00
54264;DHT22;40178;53.042;6.406;2022-08-19T15:01:43;25.30;1.00
54264;DHT22;40178;53.042;6.406;2022-08-19T15:04:09;25.70;1.00
54264;DHT22;40178;53.042;6.406;2022-08-19T15:06:34;25.90;1.00
54264;DHT22;40178;53.042;6.406;2022-08-19T15:09:00;26.20;1.00
54264;DHT22;40178;53.042;6.406;2022-08-19T15:11:27;26.60;1.00
54264;DHT22;40178;53.042;6.406;2022-08-19T15:13:54;26.70;99.90
54264;DHT22;40178;53.042;6.406;2022-08-19T15:16:21;26.90;99.90
54264;DHT22;40178;53.042;6.406;2022-08-19T15:18:52;26.60;99.90
54264;DHT22;40178;53.042;6.406;2022-08-19T15:21:18;26.50;99.90
54264;DHT22;40178;53.042;6.406;2022-08-19T15:23:48;26.20;99.90
54264;DHT22;40178;53.042;6.406;2022-08-19T15:26:15;26.10;27.70
54264;DHT22;40178;53.042;6.406;2022-08-19T15:28:41;25.90;99.90
54264;DHT22;40178;53.042;6.406;2022-08-19T15:31:07;25.60;99.90
54264;DHT22;40178;53.042;6.406;2022-08-19T15:33:34;25.60;99.90
54264;DHT22;40178;53.042;6.406;2022-08-19T15:36:05;25.70;76.00
54264;DHT22;40178;53.042;6.406;2022-08-19T15:38:31;26.20;99.90
54264;DHT22;40178;53.042;6.406;2022-08-19T15:41:02;26.50;1.00
54264;DHT22;40178;53.042;6.406;2022-08-19T15:43:48;26.80;99.90
54264;DHT22;40178;53.042;6.406;2022-08-19T15:46:23;26.70;99.90
54264;DHT22;40178;53.042;6.406;2022-08-19T15:48:51;26.50;99.90
54264;DHT22;40178;53.042;6.406;2022-08-19T15:51:17;26.10;99.90
54264;DHT22;40178;53.042;6.406;2022-08-19T15:53:43;25.90;99.90
54264;DHT22;40178;53.042;6.406;2022-08-19T15:56:09;25.50;1.00
54264;DHT22;40178;53.042;6.406;2022-08-19T15:58:35;25.40;1.00
54264;DHT22;40178;53.042;6.406;2022-08-19T16:01:19;25.30;1.00
54264;DHT22;40178;53.042;6.406;2022-08-19T16:04:04;25.10;1.00